sensor_id;sensor_type;location;lat;lon;timestamp;P1;durP1;ratioP1;P2;durP2;ratioP2
1414;SDS011;702;49.466;11.086;2024-01-06T00:02:26;16.03;;;10.40;;
1414;SDS011;702;49.466;11.086;2024-01-06T00:04:54;13.13;;;10.17;;
1414;SDS011;702;49.466;11.086;2024-01-06T00:07:21;15.73;;;11.33;;
1414;SDS011;702;49.466;11.086;2024-01-06T00:09:50;11.20;;;10.10;;
1414;SDS011;702;49.466;11.086;2024-01-06T00:12:17;14.27;;;10.10;;
1414;SDS011;702;49.466;11.086;2024-01-06T00:14:45;13.73;;;9.73;;
1414;SDS011;702;49.466;11.086;2024-01-06T00:17:14;13.13;;;10.10;;
1414;SDS011;702;49.466;11.086;2024-01-06T00:19:42;15.20;;;10.70;;
1414;SDS011;702;49.466;11.086;2024-01-06T00:22:08;15.37;;;10.50;;
1414;SDS011;702;49.466;11.086;2024-01-06T00:24:36;14.10;;;10.60;;
1414;SDS011;702;49.466;11.086;2024-01-06T00:27:05;11.50;;;10.20;;
1414;SDS011;702;49.466;11.086;2024-01-06T00:29:32;13.00;;;11.10;;
1414;SDS011;702;49.466;11.086;2024-01-06T00:31:59;14.43;;;9.80;;
1414;SDS011;702;49.466;11.086;2024-01-06T00:34:26;18.43;;;11.00;;
1414;SDS011;702;49.466;11.086;2024-01-06T00:36:53;19.90;;;12.70;;
1414;SDS011;702;49.466;11.086;2024-01-06T00:39:21;14.13;;;11.67;;
1414;SDS011;702;49.466;11.086;2024-01-06T00:41:48;16.53;;;12.07;;
1414;SDS011;702;49.466;11.086;2024-01-06T00:44:17;14.80;;;11.07;;
1414;SDS011;702;49.466;11.086;2024-01-06T00:46:44;15.83;;;11.97;;
1414;SDS011;702;49.466;11.086;2024-01-06T00:49:12;15.03;;;12.07;;
1414;SDS011;702;49.466;11.086;2024-01-06T00:51:39;14.90;;;10.60;;
1414;SDS011;702;49.466;11.086;2024-01-06T00:54:06;13.90;;;11.70;;
1414;SDS011;702;49.466;11.086;2024-01-06T00:56:38;15.17;;;12.40;;
1414;SDS011;702;49.466;11.086;2024-01-06T00:59:07;17.77;;;11.80;;
1414;SDS011;702;49.466;11.086;2024-01-06T01:01:35;13.83;;;10.60;;
1414;SDS011;702;49.466;11.086;2024-01-06T01:04:03;13.93;;;12.10;;
1414;SDS011;702;49.466;11.086;2024-01-06T01:06:31;13.30;;;11.90;;
1414;SDS011;702;49.466;11.086;2024-01-06T01:08:58;13.97;;;11.50;;
1414;SDS011;702;49.466;11.086;2024-01-06T01:11:25;11.57;;;9.80;;
1414;SDS011;702;49.466;11.086;2024-01-06T01:13:53;15.10;;;11.83;;
1414;SDS011;702;49.466;11.086;2024-01-06T01:16:20;16.70;;;12.03;;
1414;SDS011;702;49.466;11.086;2024-01-06T01:18:48;15.43;;;12.13;;
1414;SDS011;702;49.466;11.086;2024-01-06T01:21:15;13.87;;;12.30;;
1414;SDS011;702;49.466;11.086;2024-01-06T01:23:43;19.07;;;12.80;;
1414;SDS011;702;49.466;11.086;2024-01-06T01:26:11;13.27;;;11.30;;
1414;SDS011;702;49.466;11.086;2024-01-06T01:28:38;17.77;;;11.70;;
1414;SDS011;702;49.466;11.086;2024-01-06T01:31:05;17.07;;;13.17;;
1414;SDS011;702;49.466;11.086;2024-01-06T01:33:33;13.40;;;12.00;;
1414;SDS011;702;49.466;11.086;2024-01-06T01:36:02;14.50;;;11.10;;
1414;SDS011;702;49.466;11.086;2024-01-06T01:38:29;17.67;;;11.87;;
1414;SDS011;702;49.466;11.086;2024-01-06T01:40:56;13.70;;;12.10;;
1414;SDS011;702;49.466;11.086;2024-01-06T01:43:24;14.47;;;12.27;;
1414;SDS011;702;49.466;11.086;2024-01-06T01:45:54;16.00;;;12.83;;
1414;SDS011;702;49.466;11.086;2024-01-06T01:48:22;15.83;;;11.90;;
1414;SDS011;702;49.466;11.086;2024-01-06T01:50:51;17.67;;;11.30;;
1414;SDS011;702;49.466;11.086;2024-01-06T01:53:21;18.47;;;12.03;;
1414;SDS011;702;49.466;11.086;2024-01-06T01:55:49;16.00;;;11.57;;
1414;SDS011;702;49.466;11.086;2024-01-06T01:58:17;17.60;;;12.70;;
1414;SDS011;702;49.466;11.086;2024-01-06T02:00:44;17.97;;;11.63;;
1414;SDS011;702;49.466;11.086;2024-01-06T02:03:12;14.00;;;11.00;;
1414;SDS011;702;49.466;11.086;2024-01-06T02:05:40;15.27;;;12.00;;
1414;SDS011;702;49.466;11.086;2024-01-06T02:08:07;13.93;;;12.10;;
1414;SDS011;702;49.466;11.086;2024-01-06T02:10:36;16.10;;;11.47;;
1414;SDS011;702;49.466;11.086;2024-01-06T02:13:09;15.63;;;11.60;;
1414;SDS011;702;49.466;11.086;2024-01-06T02:15:38;14.30;;;11.30;;
1414;SDS011;702;49.466;11.086;2024-01-06T02:18:06;14.90;;;10.67;;
1414;SDS011;702;49.466;11.086;2024-01-06T02:20:35;16.50;;;10.90;;
1414;SDS011;702;49.466;11.086;2024-01-06T02:23:05;12.03;;;10.33;;
1414;SDS011;702;49.466;11.086;2024-01-06T02:25:33;13.97;;;10.40;;
1414;SDS011;702;49.466;11.086;2024-01-06T02:28:03;12.03;;;10.87;;
1414;SDS011;702;49.466;11.086;2024-01-06T02:30:31;14.73;;;10.80;;
1414;SDS011;702;49.466;11.086;2024-01-06T02:32:59;13.73;;;10.67;;
1414;SDS011;702;49.466;11.086;2024-01-06T02:35:26;12.27;;;10.20;;
1414;SDS011;702;49.466;11.086;2024-01-06T02:37:53;11.97;;;9.83;;
1414;SDS011;702;49.466;11.086;2024-01-06T02:40:22;12.47;;;10.10;;
1414;SDS011;702;49.466;11.086;2024-01-06T02:42:49;14.00;;;10.00;;
1414;SDS011;702;49.466;11.086;2024-01-06T02:45:22;13.50;;;9.50;;
1414;SDS011;702;49.466;11.086;2024-01-06T02:47:49;17.47;;;10.10;;
1414;SDS011;702;49.466;11.086;2024-01-06T02:50:17;11.40;;;9.27;;
1414;SDS011;702;49.466;11.086;2024-01-06T02:52:44;12.73;;;9.17;;
1414;SDS011;702;49.466;11.086;2024-01-06T02:55:12;10.73;;;9.60;;
1414;SDS011;702;49.466;11.086;2024-01-06T02:57:43;10.63;;;9.43;;
1414;SDS011;702;49.466;11.086;2024-01-06T03:00:10;11.10;;;8.73;;
1414;SDS011;702;49.466;11.086;2024-01-06T03:02:39;12.47;;;9.27;;
1414;SDS011;702;49.466;11.086;2024-01-06T03:05:08;16.60;;;9.57;;
1414;SDS011;702;49.466;11.086;2024-01-06T03:07:36;12.73;;;9.17;;
1414;SDS011;702;49.466;11.086;2024-01-06T03:10:04;14.00;;;9.87;;
1414;SDS011;702;49.466;11.086;2024-01-06T03:12:32;15.53;;;10.20;;
1414;SDS011;702;49.466;11.086;2024-01-06T03:15:01;10.03;;;8.33;;
1414;SDS011;702;49.466;11.086;2024-01-06T03:17:28;10.10;;;8.47;;
1414;SDS011;702;49.466;11.086;2024-01-06T03:19:56;10.60;;;8.17;;
1414;SDS011;702;49.466;11.086;2024-01-06T03:22:23;10.23;;;8.63;;
1414;SDS011;702;49.466;11.086;2024-01-06T03:24:51;11.23;;;8.30;;
1414;SDS011;702;49.466;11.086;2024-01-06T03:27:18;12.77;;;8.53;;
1414;SDS011;702;49.466;11.086;2024-01-06T03:29:45;9.70;;;8.20;;
1414;SDS011;702;49.466;11.086;2024-01-06T03:32:15;11.90;;;7.90;;
1414;SDS011;702;49.466;11.086;2024-01-06T03:34:42;10.67;;;7.80;;
1414;SDS011;702;49.466;11.086;2024-01-06T03:37:10;11.70;;;8.10;;
1414;SDS011;702;49.466;11.086;2024-01-06T03:39:38;11.23;;;8.47;;
1414;SDS011;702;49.466;11.086;2024-01-06T03:42:05;9.87;;;8.50;;
1414;SDS011;702;49.466;11.086;2024-01-06T03:44:33;10.20;;;7.90;;
1414;SDS011;702;49.466;11.086;2024-01-06T03:47:00;14.27;;;8.07;;
1414;SDS011;702;49.466;11.086;2024-01-06T03:49:30;9.20;;;7.17;;
1414;SDS011;702;49.466;11.086;2024-01-06T03:51:58;10.70;;;6.97;;
1414;SDS011;702;49.466;11.086;2024-01-06T03:54:26;11.00;;;7.90;;
1414;SDS011;702;49.466;11.086;2024-01-06T03:56:55;10.07;;;7.93;;
1414;SDS011;702;49.466;11.086;2024-01-06T03:59:24;9.07;;;7.90;;
1414;SDS011;702;49.466;11.086;2024-01-06T04:01:52;11.93;;;8.00;;
1414;SDS011;702;49.466;11.086;2024-01-06T04:04:19;11.73;;;7.77;;
1414;SDS011;702;49.466;11.086;2024-01-06T04:06:48;10.90;;;7.40;;
1414;SDS011;702;49.466;11.086;2024-01-06T04:09:16;10.33;;;7.77;;
1414;SDS011;702;49.466;11.086;2024-01-06T04:11:43;8.23;;;7.43;;
1414;SDS011;702;49.466;11.086;2024-01-06T04:14:10;13.37;;;8.07;;
1414;SDS011;702;49.466;11.086;2024-01-06T04:16:37;9.87;;;7.60;;
1414;SDS011;702;49.466;11.086;2024-01-06T04:19:05;11.20;;;7.20;;
1414;SDS011;702;49.466;11.086;2024-01-06T04:21:33;9.40;;;7.73;;
1414;SDS011;702;49.466;11.086;2024-01-06T04:24:03;11.60;;;7.10;;
1414;SDS011;702;49.466;11.086;2024-01-06T04:26:32;10.17;;;7.60;;
1414;SDS011;702;49.466;11.086;2024-01-06T04:28:59;9.20;;;7.53;;
1414;SDS011;702;49.466;11.086;2024-01-06T04:31:26;11.10;;;7.50;;
1414;SDS011;702;49.466;11.086;2024-01-06T04:33:53;8.57;;;6.80;;
1414;SDS011;702;49.466;11.086;2024-01-06T04:36:21;8.83;;;6.83;;
1414;SDS011;702;49.466;11.086;2024-01-06T04:38:48;11.10;;;7.17;;
1414;SDS011;702;49.466;11.086;2024-01-06T04:41:17;9.47;;;6.70;;
1414;SDS011;702;49.466;11.086;2024-01-06T04:43:45;7.30;;;6.30;;
1414;SDS011;702;49.466;11.086;2024-01-06T04:46:12;12.50;;;7.53;;
1414;SDS011;702;49.466;11.086;2024-01-06T04:48:40;10.30;;;7.10;;
1414;SDS011;702;49.466;11.086;2024-01-06T04:51:09;7.03;;;6.33;;
1414;SDS011;702;49.466;11.086;2024-01-06T04:53:36;13.07;;;6.93;;
1414;SDS011;702;49.466;11.086;2024-01-06T04:56:04;12.10;;;7.33;;
1414;SDS011;702;49.466;11.086;2024-01-06T04:58:33;8.43;;;7.53;;
1414;SDS011;702;49.466;11.086;2024-01-06T05:01:00;9.17;;;7.03;;
1414;SDS011;702;49.466;11.086;2024-01-06T05:03:28;8.70;;;6.70;;
1414;SDS011;702;49.466;11.086;2024-01-06T05:05:55;8.53;;;6.70;;
1414;SDS011;702;49.466;11.086;2024-01-06T05:08:23;10.57;;;7.67;;
1414;SDS011;702;49.466;11.086;2024-01-06T05:10:51;11.40;;;7.30;;
1414;SDS011;702;49.466;11.086;2024-01-06T05:13:19;7.70;;;6.73;;
1414;SDS011;702;49.466;11.086;2024-01-06T05:15:48;8.23;;;6.70;;
1414;SDS011;702;49.466;11.086;2024-01-06T05:18:16;9.10;;;6.53;;
1414;SDS011;702;49.466;11.086;2024-01-06T05:20:43;7.53;;;6.73;;
1414;SDS011;702;49.466;11.086;2024-01-06T05:23:13;8.00;;;6.70;;
1414;SDS011;702;49.466;11.086;2024-01-06T05:25:40;9.47;;;7.63;;
1414;SDS011;702;49.466;11.086;2024-01-06T05:28:07;8.80;;;6.90;;
1414;SDS011;702;49.466;11.086;2024-01-06T05:30:34;11.10;;;7.97;;
1414;SDS011;702;49.466;11.086;2024-01-06T05:33:03;11.30;;;7.83;;
1414;SDS011;702;49.466;11.086;2024-01-06T05:35:31;8.80;;;6.80;;
1414;SDS011;702;49.466;11.086;2024-01-06T05:37:58;9.70;;;8.00;;
1414;SDS011;702;49.466;11.086;2024-01-06T05:40:25;8.13;;;7.33;;
1414;SDS011;702;49.466;11.086;2024-01-06T05:42:53;8.63;;;7.70;;
1414;SDS011;702;49.466;11.086;2024-01-06T05:45:22;10.50;;;8.50;;
1414;SDS011;702;49.466;11.086;2024-01-06T05:47:49;13.97;;;7.13;;
1414;SDS011;702;49.466;11.086;2024-01-06T05:50:18;10.07;;;7.67;;
1414;SDS011;702;49.466;11.086;2024-01-06T05:52:45;11.73;;;7.87;;
1414;SDS011;702;49.466;11.086;2024-01-06T05:55:14;10.00;;;8.20;;
1414;SDS011;702;49.466;11.086;2024-01-06T05:57:42;11.67;;;7.83;;
1414;SDS011;702;49.466;11.086;2024-01-06T06:00:09;10.30;;;7.40;;
1414;SDS011;702;49.466;11.086;2024-01-06T06:02:38;9.40;;;7.93;;
1414;SDS011;702;49.466;11.086;2024-01-06T06:05:06;9.70;;;7.27;;
1414;SDS011;702;49.466;11.086;2024-01-06T06:07:35;9.17;;;7.30;;
1414;SDS011;702;49.466;11.086;2024-01-06T06:10:06;8.03;;;7.23;;
1414;SDS011;702;49.466;11.086;2024-01-06T06:12:34;8.60;;;7.43;;
1414;SDS011;702;49.466;11.086;2024-01-06T06:15:02;9.77;;;8.23;;
1414;SDS011;702;49.466;11.086;2024-01-06T06:17:32;9.33;;;7.33;;
1414;SDS011;702;49.466;11.086;2024-01-06T06:19:59;8.67;;;6.90;;
1414;SDS011;702;49.466;11.086;2024-01-06T06:22:26;8.90;;;7.70;;
1414;SDS011;702;49.466;11.086;2024-01-06T06:24:56;11.83;;;8.33;;
1414;SDS011;702;49.466;11.086;2024-01-06T06:27:25;12.53;;;7.90;;
1414;SDS011;702;49.466;11.086;2024-01-06T06:29:53;10.40;;;6.50;;
1414;SDS011;702;49.466;11.086;2024-01-06T06:32:21;9.03;;;8.13;;
1414;SDS011;702;49.466;11.086;2024-01-06T06:34:50;9.40;;;8.40;;
1414;SDS011;702;49.466;11.086;2024-01-06T06:37:17;8.57;;;7.67;;
1414;SDS011;702;49.466;11.086;2024-01-06T06:39:44;10.07;;;7.63;;
1414;SDS011;702;49.466;11.086;2024-01-06T06:42:14;9.27;;;8.27;;
1414;SDS011;702;49.466;11.086;2024-01-06T06:44:41;10.60;;;7.27;;
1414;SDS011;702;49.466;11.086;2024-01-06T06:47:09;10.40;;;8.37;;
1414;SDS011;702;49.466;11.086;2024-01-06T06:49:37;9.50;;;7.57;;
1414;SDS011;702;49.466;11.086;2024-01-06T06:52:05;11.50;;;7.37;;
1414;SDS011;702;49.466;11.086;2024-01-06T06:54:34;12.10;;;7.30;;
1414;SDS011;702;49.466;11.086;2024-01-06T06:57:02;8.50;;;7.37;;
1414;SDS011;702;49.466;11.086;2024-01-06T06:59:31;10.57;;;8.13;;
1414;SDS011;702;49.466;11.086;2024-01-06T07:01:58;9.00;;;7.50;;
1414;SDS011;702;49.466;11.086;2024-01-06T07:04:28;8.20;;;7.10;;
1414;SDS011;702;49.466;11.086;2024-01-06T07:06:57;11.10;;;8.50;;
1414;SDS011;702;49.466;11.086;2024-01-06T07:09:24;9.50;;;8.40;;
1414;SDS011;702;49.466;11.086;2024-01-06T07:11:52;9.70;;;7.50;;
1414;SDS011;702;49.466;11.086;2024-01-06T07:14:19;15.87;;;8.70;;
1414;SDS011;702;49.466;11.086;2024-01-06T07:16:47;14.30;;;7.90;;
1414;SDS011;702;49.466;11.086;2024-01-06T07:19:15;11.13;;;7.77;;
1414;SDS011;702;49.466;11.086;2024-01-06T07:21:43;10.47;;;7.07;;
1414;SDS011;702;49.466;11.086;2024-01-06T07:24:10;10.47;;;8.30;;
1414;SDS011;702;49.466;11.086;2024-01-06T07:26:38;8.17;;;7.00;;
1414;SDS011;702;49.466;11.086;2024-01-06T07:29:05;11.43;;;8.13;;
1414;SDS011;702;49.466;11.086;2024-01-06T07:31:34;11.77;;;7.87;;
1414;SDS011;702;49.466;11.086;2024-01-06T07:34:02;11.73;;;8.00;;
1414;SDS011;702;49.466;11.086;2024-01-06T07:36:30;8.37;;;7.37;;
1414;SDS011;702;49.466;11.086;2024-01-06T07:38:57;9.30;;;8.17;;
1414;SDS011;702;49.466;11.086;2024-01-06T07:41:25;8.33;;;7.30;;
1414;SDS011;702;49.466;11.086;2024-01-06T07:43:52;9.00;;;7.13;;
1414;SDS011;702;49.466;11.086;2024-01-06T07:46:19;10.30;;;8.13;;
1414;SDS011;702;49.466;11.086;2024-01-06T07:48:47;15.23;;;8.13;;
1414;SDS011;702;49.466;11.086;2024-01-06T07:51:15;13.83;;;7.80;;
1414;SDS011;702;49.466;11.086;2024-01-06T07:53:43;10.00;;;7.63;;
1414;SDS011;702;49.466;11.086;2024-01-06T07:56:10;12.37;;;8.10;;
1414;SDS011;702;49.466;11.086;2024-01-06T07:58:37;11.00;;;7.13;;
1414;SDS011;702;49.466;11.086;2024-01-06T08:01:04;10.53;;;6.80;;
1414;SDS011;702;49.466;11.086;2024-01-06T08:03:31;9.47;;;7.17;;
1414;SDS011;702;49.466;11.086;2024-01-06T08:05:58;9.67;;;7.43;;
1414;SDS011;702;49.466;11.086;2024-01-06T08:08:27;10.23;;;7.00;;
1414;SDS011;702;49.466;11.086;2024-01-06T08:10:55;15.10;;;6.93;;
1414;SDS011;702;49.466;11.086;2024-01-06T08:13:22;11.00;;;7.57;;
1414;SDS011;702;49.466;11.086;2024-01-06T08:15:49;13.60;;;8.20;;
1414;SDS011;702;49.466;11.086;2024-01-06T08:18:17;13.30;;;7.83;;
1414;SDS011;702;49.466;11.086;2024-01-06T08:20:45;10.00;;;7.87;;
1414;SDS011;702;49.466;11.086;2024-01-06T08:23:12;10.87;;;8.40;;
1414;SDS011;702;49.466;11.086;2024-01-06T08:25:40;9.00;;;8.10;;
1414;SDS011;702;49.466;11.086;2024-01-06T08:28:08;9.37;;;7.93;;
1414;SDS011;702;49.466;11.086;2024-01-06T08:30:35;9.60;;;8.50;;
1414;SDS011;702;49.466;11.086;2024-01-06T08:33:02;11.93;;;8.20;;
1414;SDS011;702;49.466;11.086;2024-01-06T08:35:30;14.17;;;8.20;;
1414;SDS011;702;49.466;11.086;2024-01-06T08:37:57;10.63;;;8.10;;
1414;SDS011;702;49.466;11.086;2024-01-06T08:40:24;9.37;;;8.37;;
1414;SDS011;702;49.466;11.086;2024-01-06T08:42:54;13.63;;;7.97;;
1414;SDS011;702;49.466;11.086;2024-01-06T08:45:21;17.43;;;9.63;;
1414;SDS011;702;49.466;11.086;2024-01-06T08:47:48;11.87;;;9.37;;
1414;SDS011;702;49.466;11.086;2024-01-06T08:50:15;11.57;;;9.33;;
1414;SDS011;702;49.466;11.086;2024-01-06T08:52:43;10.60;;;9.27;;
1414;SDS011;702;49.466;11.086;2024-01-06T08:55:10;10.50;;;8.87;;
1414;SDS011;702;49.466;11.086;2024-01-06T08:57:37;10.37;;;8.83;;
1414;SDS011;702;49.466;11.086;2024-01-06T09:00:06;15.73;;;8.83;;
1414;SDS011;702;49.466;11.086;2024-01-06T09:02:36;10.63;;;8.10;;
1414;SDS011;702;49.466;11.086;2024-01-06T09:05:03;11.90;;;8.83;;
1414;SDS011;702;49.466;11.086;2024-01-06T09:07:32;12.43;;;9.73;;
1414;SDS011;702;49.466;11.086;2024-01-06T09:09:59;10.80;;;8.93;;
1414;SDS011;702;49.466;11.086;2024-01-06T09:12:26;13.40;;;10.00;;
1414;SDS011;702;49.466;11.086;2024-01-06T09:14:54;10.60;;;9.13;;
1414;SDS011;702;49.466;11.086;2024-01-06T09:17:24;14.87;;;9.07;;
1414;SDS011;702;49.466;11.086;2024-01-06T09:19:51;11.87;;;9.10;;
1414;SDS011;702;49.466;11.086;2024-01-06T09:22:19;14.13;;;9.90;;
1414;SDS011;702;49.466;11.086;2024-01-06T09:24:46;11.40;;;9.70;;
1414;SDS011;702;49.466;11.086;2024-01-06T09:27:13;12.80;;;10.17;;
1414;SDS011;702;49.466;11.086;2024-01-06T09:29:41;15.07;;;10.47;;
1414;SDS011;702;49.466;11.086;2024-01-06T09:32:08;12.77;;;9.50;;
1414;SDS011;702;49.466;11.086;2024-01-06T09:34:36;14.53;;;10.43;;
1414;SDS011;702;49.466;11.086;2024-01-06T09:37:04;10.80;;;8.87;;
1414;SDS011;702;49.466;11.086;2024-01-06T09:39:31;15.23;;;10.17;;
1414;SDS011;702;49.466;11.086;2024-01-06T09:41:59;12.20;;;9.53;;
1414;SDS011;702;49.466;11.086;2024-01-06T09:44:26;19.97;;;11.63;;
1414;SDS011;702;49.466;11.086;2024-01-06T09:46:53;12.93;;;10.97;;
1414;SDS011;702;49.466;11.086;2024-01-06T09:49:25;12.90;;;9.93;;
1414;SDS011;702;49.466;11.086;2024-01-06T09:51:58;14.00;;;9.90;;
1414;SDS011;702;49.466;11.086;2024-01-06T09:54:26;10.10;;;9.10;;
1414;SDS011;702;49.466;11.086;2024-01-06T09:56:58;12.53;;;9.43;;
1414;SDS011;702;49.466;11.086;2024-01-06T09:59:27;11.77;;;8.57;;
1414;SDS011;702;49.466;11.086;2024-01-06T10:01:59;11.23;;;9.20;;
1414;SDS011;702;49.466;11.086;2024-01-06T10:04:27;10.97;;;9.67;;
1414;SDS011;702;49.466;11.086;2024-01-06T10:06:54;12.70;;;9.60;;
1414;SDS011;702;49.466;11.086;2024-01-06T10:09:27;10.73;;;8.70;;
1414;SDS011;702;49.466;11.086;2024-01-06T10:11:55;12.80;;;9.40;;
1414;SDS011;702;49.466;11.086;2024-01-06T10:14:23;13.63;;;10.60;;
1414;SDS011;702;49.466;11.086;2024-01-06T10:16:51;12.97;;;8.83;;
1414;SDS011;702;49.466;11.086;2024-01-06T10:19:18;12.57;;;9.40;;
1414;SDS011;702;49.466;11.086;2024-01-06T10:21:46;10.17;;;8.37;;
1414;SDS011;702;49.466;11.086;2024-01-06T10:24:14;13.87;;;8.93;;
1414;SDS011;702;49.466;11.086;2024-01-06T10:26:45;10.37;;;9.27;;
1414;SDS011;702;49.466;11.086;2024-01-06T10:29:12;9.43;;;7.50;;
1414;SDS011;702;49.466;11.086;2024-01-06T10:31:40;11.23;;;8.80;;
1414;SDS011;702;49.466;11.086;2024-01-06T10:34:07;9.93;;;7.97;;
1414;SDS011;702;49.466;11.086;2024-01-06T10:36:35;11.63;;;8.00;;
1414;SDS011;702;49.466;11.086;2024-01-06T10:39:03;9.07;;;8.17;;
1414;SDS011;702;49.466;11.086;2024-01-06T10:41:32;12.33;;;8.07;;
1414;SDS011;702;49.466;11.086;2024-01-06T10:44:04;14.13;;;9.10;;
1414;SDS011;702;49.466;11.086;2024-01-06T10:46:33;11.87;;;7.97;;
1414;SDS011;702;49.466;11.086;2024-01-06T10:49:02;11.80;;;7.20;;
1414;SDS011;702;49.466;11.086;2024-01-06T10:51:33;13.20;;;8.73;;
1414;SDS011;702;49.466;11.086;2024-01-06T10:54:01;10.70;;;7.73;;
1414;SDS011;702;49.466;11.086;2024-01-06T10:56:29;12.77;;;7.20;;
1414;SDS011;702;49.466;11.086;2024-01-06T10:58:56;11.17;;;7.83;;
1414;SDS011;702;49.466;11.086;2024-01-06T11:01:25;8.67;;;7.37;;
1414;SDS011;702;49.466;11.086;2024-01-06T11:03:53;8.57;;;7.10;;
1414;SDS011;702;49.466;11.086;2024-01-06T11:06:21;12.47;;;8.43;;
1414;SDS011;702;49.466;11.086;2024-01-06T11:08:50;8.13;;;7.10;;
1414;SDS011;702;49.466;11.086;2024-01-06T11:11:33;9.67;;;7.27;;
1414;SDS011;702;49.466;11.086;2024-01-06T11:14:18;10.13;;;7.80;;
1414;SDS011;702;49.466;11.086;2024-01-06T11:16:49;10.43;;;8.00;;
1414;SDS011;702;49.466;11.086;2024-01-06T11:22:19;7.87;;;6.53;;
1414;SDS011;702;49.466;11.086;2024-01-06T11:24:47;8.63;;;6.77;;
1414;SDS011;702;49.466;11.086;2024-01-06T11:27:19;8.60;;;6.53;;
1414;SDS011;702;49.466;11.086;2024-01-06T11:29:50;11.43;;;7.57;;
1414;SDS011;702;49.466;11.086;2024-01-06T11:32:25;9.60;;;8.20;;
1414;SDS011;702;49.466;11.086;2024-01-06T11:34:55;9.20;;;7.27;;
1414;SDS011;702;49.466;11.086;2024-01-06T11:37:34;9.00;;;7.27;;
1414;SDS011;702;49.466;11.086;2024-01-06T11:40:04;7.13;;;6.43;;
1414;SDS011;702;49.466;11.086;2024-01-06T11:42:35;11.57;;;8.90;;
1414;SDS011;702;49.466;11.086;2024-01-06T11:45:03;10.27;;;7.57;;
1414;SDS011;702;49.466;11.086;2024-01-06T11:47:33;9.17;;;7.77;;
1414;SDS011;702;49.466;11.086;2024-01-06T11:50:02;9.43;;;7.40;;
1414;SDS011;702;49.466;11.086;2024-01-06T11:52:30;8.97;;;7.40;;
1414;SDS011;702;49.466;11.086;2024-01-06T11:54:59;11.20;;;8.30;;
1414;SDS011;702;49.466;11.086;2024-01-06T11:57:27;13.03;;;8.70;;
1414;SDS011;702;49.466;11.086;2024-01-06T11:59:55;9.77;;;7.47;;
1414;SDS011;702;49.466;11.086;2024-01-06T12:02:23;9.80;;;8.03;;
1414;SDS011;702;49.466;11.086;2024-01-06T12:04:52;8.63;;;7.40;;
1414;SDS011;702;49.466;11.086;2024-01-06T12:07:20;14.80;;;8.10;;
1414;SDS011;702;49.466;11.086;2024-01-06T12:09:48;10.30;;;7.40;;
1414;SDS011;702;49.466;11.086;2024-01-06T12:12:16;13.33;;;8.63;;
1414;SDS011;702;49.466;11.086;2024-01-06T12:14:44;9.60;;;8.47;;
1414;SDS011;702;49.466;11.086;2024-01-06T12:17:12;9.40;;;7.83;;
1414;SDS011;702;49.466;11.086;2024-01-06T12:19:40;10.30;;;8.23;;
1414;SDS011;702;49.466;11.086;2024-01-06T12:22:15;10.23;;;8.10;;
1414;SDS011;702;49.466;11.086;2024-01-06T12:24:42;10.90;;;8.10;;
1414;SDS011;702;49.466;11.086;2024-01-06T12:27:10;10.07;;;6.83;;
1414;SDS011;702;49.466;11.086;2024-01-06T12:29:38;10.60;;;7.10;;
1414;SDS011;702;49.466;11.086;2024-01-06T12:32:06;8.27;;;6.77;;
1414;SDS011;702;49.466;11.086;2024-01-06T12:34:35;9.40;;;6.97;;
1414;SDS011;702;49.466;11.086;2024-01-06T12:37:02;8.47;;;7.57;;
1414;SDS011;702;49.466;11.086;2024-01-06T12:39:31;8.20;;;7.40;;
1414;SDS011;702;49.466;11.086;2024-01-06T12:41:58;9.70;;;7.00;;
1414;SDS011;702;49.466;11.086;2024-01-06T12:44:27;7.83;;;6.20;;
1414;SDS011;702;49.466;11.086;2024-01-06T12:46:55;8.70;;;6.03;;
1414;SDS011;702;49.466;11.086;2024-01-06T12:49:22;7.90;;;6.57;;
1414;SDS011;702;49.466;11.086;2024-01-06T12:51:50;8.70;;;7.50;;
1414;SDS011;702;49.466;11.086;2024-01-06T12:54:17;9.50;;;7.07;;
1414;SDS011;702;49.466;11.086;2024-01-06T12:56:46;8.47;;;6.53;;
1414;SDS011;702;49.466;11.086;2024-01-06T12:59:13;10.53;;;6.33;;
1414;SDS011;702;49.466;11.086;2024-01-06T13:01:40;7.87;;;6.03;;
1414;SDS011;702;49.466;11.086;2024-01-06T13:04:08;11.73;;;7.10;;
1414;SDS011;702;49.466;11.086;2024-01-06T13:06:36;9.20;;;6.80;;
1414;SDS011;702;49.466;11.086;2024-01-06T13:09:05;11.40;;;7.20;;
1414;SDS011;702;49.466;11.086;2024-01-06T13:11:33;8.00;;;6.70;;
1414;SDS011;702;49.466;11.086;2024-01-06T13:14:03;10.67;;;6.80;;
1414;SDS011;702;49.466;11.086;2024-01-06T13:16:30;9.20;;;6.27;;
1414;SDS011;702;49.466;11.086;2024-01-06T13:18:57;8.53;;;7.43;;
1414;SDS011;702;49.466;11.086;2024-01-06T13:21:25;8.00;;;6.60;;
1414;SDS011;702;49.466;11.086;2024-01-06T13:23:53;9.53;;;7.60;;
1414;SDS011;702;49.466;11.086;2024-01-06T13:26:26;9.50;;;7.60;;
1414;SDS011;702;49.466;11.086;2024-01-06T13:28:53;9.90;;;7.97;;
1414;SDS011;702;49.466;11.086;2024-01-06T13:31:22;10.43;;;7.77;;
1414;SDS011;702;49.466;11.086;2024-01-06T13:33:50;10.90;;;8.00;;
1414;SDS011;702;49.466;11.086;2024-01-06T13:36:19;9.40;;;6.20;;
1414;SDS011;702;49.466;11.086;2024-01-06T13:38:46;7.10;;;6.40;;
1414;SDS011;702;49.466;11.086;2024-01-06T13:41:14;7.23;;;6.00;;
1414;SDS011;702;49.466;11.086;2024-01-06T13:43:41;9.87;;;7.63;;
1414;SDS011;702;49.466;11.086;2024-01-06T13:46:10;9.10;;;8.20;;
1414;SDS011;702;49.466;11.086;2024-01-06T13:48:40;15.73;;;8.70;;
1414;SDS011;702;49.466;11.086;2024-01-06T13:51:07;13.47;;;10.63;;
1414;SDS011;702;49.466;11.086;2024-01-06T13:53:35;14.03;;;10.90;;
1414;SDS011;702;49.466;11.086;2024-01-06T13:56:03;12.13;;;9.90;;
1414;SDS011;702;49.466;11.086;2024-01-06T13:58:31;11.73;;;9.23;;
1414;SDS011;702;49.466;11.086;2024-01-06T14:01:00;13.83;;;9.03;;
1414;SDS011;702;49.466;11.086;2024-01-06T14:03:28;11.77;;;10.43;;
1414;SDS011;702;49.466;11.086;2024-01-06T14:05:57;9.33;;;7.97;;
1414;SDS011;702;49.466;11.086;2024-01-06T14:08:25;8.00;;;5.60;;
1414;SDS011;702;49.466;11.086;2024-01-06T14:10:52;8.90;;;6.47;;
1414;SDS011;702;49.466;11.086;2024-01-06T14:13:19;8.97;;;5.90;;
1414;SDS011;702;49.466;11.086;2024-01-06T14:15:47;7.50;;;6.07;;
1414;SDS011;702;49.466;11.086;2024-01-06T14:18:14;8.23;;;6.10;;
1414;SDS011;702;49.466;11.086;2024-01-06T14:20:43;11.57;;;5.50;;
1414;SDS011;702;49.466;11.086;2024-01-06T14:23:16;7.53;;;5.43;;
1414;SDS011;702;49.466;11.086;2024-01-06T14:25:43;8.40;;;5.77;;
1414;SDS011;702;49.466;11.086;2024-01-06T14:28:15;7.90;;;5.90;;
1414;SDS011;702;49.466;11.086;2024-01-06T14:30:42;7.33;;;5.57;;
1414;SDS011;702;49.466;11.086;2024-01-06T14:33:10;7.50;;;6.70;;
1414;SDS011;702;49.466;11.086;2024-01-06T14:35:39;7.70;;;6.80;;
1414;SDS011;702;49.466;11.086;2024-01-06T14:38:08;8.93;;;6.40;;
1414;SDS011;702;49.466;11.086;2024-01-06T14:40:42;8.10;;;5.87;;
1414;SDS011;702;49.466;11.086;2024-01-06T14:43:12;7.60;;;6.33;;
1414;SDS011;702;49.466;11.086;2024-01-06T14:45:41;7.67;;;6.10;;
1414;SDS011;702;49.466;11.086;2024-01-06T14:48:09;5.10;;;4.60;;
1414;SDS011;702;49.466;11.086;2024-01-06T14:50:37;7.37;;;6.20;;
1414;SDS011;702;49.466;11.086;2024-01-06T14:53:06;6.60;;;5.20;;
1414;SDS011;702;49.466;11.086;2024-01-06T14:55:36;9.40;;;5.23;;
1414;SDS011;702;49.466;11.086;2024-01-06T14:58:08;8.90;;;5.57;;
1414;SDS011;702;49.466;11.086;2024-01-06T15:00:35;6.10;;;5.10;;
1414;SDS011;702;49.466;11.086;2024-01-06T15:03:03;7.50;;;5.53;;
1414;SDS011;702;49.466;11.086;2024-01-06T15:05:34;6.80;;;5.90;;
1414;SDS011;702;49.466;11.086;2024-01-06T15:08:03;7.17;;;5.80;;
1414;SDS011;702;49.466;11.086;2024-01-06T15:10:35;7.50;;;5.90;;
1414;SDS011;702;49.466;11.086;2024-01-06T15:13:03;8.37;;;6.60;;